createdAt,value
2023-04-03T00:01:25.023Z,17.00
2023-04-03T00:03:53.516Z,16.08
2023-04-03T00:06:20.648Z,16.58
2023-04-03T00:08:47.830Z,14.52
2023-04-03T00:11:15.053Z,12.65
2023-04-03T00:13:42.517Z,12.02
2023-04-03T00:16:11.583Z,14.30
2023-04-03T00:18:40.172Z,33.83
2023-04-03T00:21:08.807Z,17.98
2023-04-03T00:23:36.203Z,13.98
2023-04-03T00:26:03.627Z,13.30
2023-04-03T00:28:30.689Z,12.45
2023-04-03T00:30:57.646Z,12.52
2023-04-03T00:33:25.768Z,11.95
2023-04-03T00:35:53.615Z,11.05
2023-04-03T00:38:21.881Z,11.27
2023-04-03T00:40:50.403Z,10.63
2023-04-03T00:43:25.020Z,9.68
2023-04-03T00:45:57.492Z,10.00
2023-04-03T00:48:30.874Z,10.27
2023-04-03T00:50:59.234Z,10.38
2023-04-03T00:53:35.184Z,9.63
2023-04-03T00:56:03.051Z,9.75
2023-04-03T00:58:38.710Z,8.77
2023-04-03T01:03:46.933Z,7.40
2023-04-03T01:06:17.500Z,7.68
2023-04-03T01:08:45.910Z,8.85
2023-04-03T01:11:15.227Z,9.02
2023-04-03T01:13:42.359Z,9.32
2023-04-03T01:16:09.726Z,8.93
2023-04-03T01:18:39.873Z,9.57
2023-04-03T01:21:28.033Z,14.23
2023-04-03T01:24:03.281Z,12.55
2023-04-03T01:26:30.925Z,10.15
2023-04-03T01:29:00.963Z,10.80
2023-04-03T01:31:36.798Z,8.98
2023-04-03T01:34:04.500Z,8.23
2023-04-03T01:36:32.944Z,8.80
2023-04-03T01:39:01.140Z,8.55
2023-04-03T01:41:28.625Z,9.10
2023-04-03T01:43:56.081Z,9.13
2023-04-03T01:46:26.613Z,8.93
2023-04-03T01:48:53.452Z,8.57
2023-04-03T01:51:20.315Z,9.02
2023-04-03T01:53:47.192Z,9.23
2023-04-03T01:56:14.033Z,9.25
2023-04-03T01:58:41.011Z,8.75
2023-04-03T02:01:07.966Z,8.77
2023-04-03T02:03:35.188Z,8.32
2023-04-03T02:06:02.230Z,8.95
2023-04-03T02:08:29.177Z,8.18
2023-04-03T02:10:56.070Z,7.93
2023-04-03T02:13:22.865Z,9.18
2023-04-03T02:15:50.052Z,9.70
2023-04-03T02:18:17.111Z,11.57
2023-04-03T02:20:43.942Z,14.15
2023-04-03T02:23:11.170Z,18.58
2023-04-03T02:25:38.831Z,11.15
2023-04-03T02:28:06.786Z,10.75
2023-04-03T02:30:33.820Z,11.07
2023-04-03T02:33:03.307Z,7.20
2023-04-03T02:35:30.233Z,8.93
2023-04-03T02:37:57.194Z,7.82
2023-04-03T02:40:24.005Z,6.60
2023-04-03T02:42:50.820Z,6.18
2023-04-03T02:45:17.721Z,6.43
2023-04-03T02:47:44.576Z,7.05
2023-04-03T02:50:11.576Z,7.57
2023-04-03T02:52:38.823Z,8.77
2023-04-03T02:55:06.359Z,8.93
2023-04-03T02:57:33.405Z,10.43
2023-04-03T03:00:00.359Z,11.77
2023-04-03T03:02:27.294Z,11.48
2023-04-03T03:04:54.355Z,11.63
2023-04-03T03:07:21.386Z,12.55
2023-04-03T03:09:48.276Z,13.95
2023-04-03T03:12:15.146Z,14.82
2023-04-03T03:14:44.118Z,15.90
2023-04-03T03:17:11.029Z,16.42
2023-04-03T03:19:37.912Z,17.63
2023-04-03T03:22:04.926Z,16.75
2023-04-03T03:24:31.762Z,17.55
2023-04-03T03:26:58.670Z,17.90
2023-04-03T03:29:25.641Z,18.20
2023-04-03T03:32:07.893Z,17.92
2023-04-03T03:34:34.993Z,18.02
2023-04-03T03:37:01.966Z,19.35
2023-04-03T03:39:29.197Z,17.73
2023-04-03T03:41:56.099Z,17.33
2023-04-03T03:44:23.926Z,17.17
2023-04-03T03:46:50.870Z,18.40
2023-04-03T03:49:17.906Z,16.23
2023-04-03T03:51:44.733Z,14.00
2023-04-03T03:54:11.912Z,13.68
2023-04-03T03:56:38.862Z,13.18
2023-04-03T03:59:05.913Z,12.02
2023-04-03T04:01:33.405Z,12.60
2023-04-03T04:04:00.489Z,11.75
2023-04-03T04:06:27.677Z,12.77
2023-04-03T04:08:54.956Z,11.27
2023-04-03T04:11:23.143Z,11.73
2023-04-03T04:13:49.968Z,11.45
2023-04-03T04:16:16.882Z,11.35
2023-04-03T04:18:43.782Z,10.48
2023-04-03T04:21:10.645Z,11.88
2023-04-03T04:23:37.459Z,12.52
2023-04-03T04:26:04.397Z,31.55
2023-04-03T04:28:31.218Z,39.65
2023-04-03T04:30:58.040Z,44.65
2023-04-03T04:33:25.164Z,44.63
2023-04-03T04:35:52.999Z,42.03
2023-04-03T04:38:19.867Z,42.15
2023-04-03T04:40:46.924Z,39.25
2023-04-03T04:43:15.649Z,39.40
2023-04-03T04:45:43.129Z,39.25
2023-04-03T04:48:10.157Z,38.42
2023-04-03T04:50:37.025Z,33.78
2023-04-03T04:53:03.908Z,33.58
2023-04-03T04:55:31.118Z,32.40
2023-04-03T04:57:57.936Z,31.70
2023-04-03T05:00:24.853Z,31.75
2023-04-03T05:02:51.943Z,30.15
2023-04-03T05:05:18.812Z,31.33
2023-04-03T05:07:46.037Z,30.20
2023-04-03T05:10:12.897Z,29.65
2023-04-03T05:12:39.758Z,31.55
2023-04-03T05:15:07.288Z,31.73
2023-04-03T05:17:34.322Z,32.60
2023-04-03T05:20:01.179Z,32.05
2023-04-03T05:22:28.069Z,33.97
2023-04-03T05:24:55.072Z,34.40
2023-04-03T05:27:22.077Z,32.95
2023-04-03T05:29:49.070Z,32.42
2023-04-03T05:32:16.001Z,32.10
2023-04-03T05:34:42.929Z,32.90
2023-04-03T05:37:11.859Z,29.55
2023-04-03T05:39:41.681Z,31.27
2023-04-03T05:42:09.465Z,29.65
2023-04-03T05:44:36.446Z,29.77
2023-04-03T05:47:03.730Z,28.63
2023-04-03T05:49:30.600Z,27.02
2023-04-03T05:51:57.616Z,26.98
2023-04-03T05:54:30.407Z,25.75
2023-04-03T05:56:57.451Z,23.92
2023-04-03T05:59:24.327Z,21.45
2023-04-03T06:01:51.294Z,18.25
2023-04-03T06:04:18.503Z,18.90
2023-04-03T06:06:48.751Z,16.63
2023-04-03T06:09:17.763Z,15.32
2023-04-03T06:11:45.040Z,16.25
2023-04-03T06:14:12.133Z,16.27
2023-04-03T06:16:40.362Z,13.63
2023-04-03T06:19:09.121Z,13.35
2023-04-03T06:21:37.009Z,12.48
2023-04-03T06:24:07.972Z,15.52
2023-04-03T06:26:35.656Z,15.35
2023-04-03T06:29:03.534Z,16.02
2023-04-03T06:31:31.073Z,12.95
2023-04-03T06:33:58.057Z,13.95
2023-04-03T06:36:25.377Z,12.80
2023-04-03T06:38:52.454Z,14.70
2023-04-03T06:41:19.361Z,13.05
2023-04-03T06:43:46.233Z,13.15
2023-04-03T06:46:21.902Z,12.27
2023-04-03T06:48:49.303Z,12.70
2023-04-03T06:51:42.129Z,12.52
2023-04-03T06:54:09.430Z,11.77
2023-04-03T06:56:36.973Z,13.40
2023-04-03T06:59:04.525Z,12.93
2023-04-03T07:01:32.012Z,13.68
2023-04-03T07:04:00.011Z,14.07
2023-04-03T07:06:28.230Z,13.57
2023-04-03T07:08:56.338Z,15.77
2023-04-03T07:11:23.730Z,14.77
2023-04-03T07:13:51.538Z,13.70
2023-04-03T07:16:18.448Z,16.92
2023-04-03T07:18:46.068Z,15.23
2023-04-03T07:21:13.248Z,15.10
2023-04-03T07:23:40.560Z,16.55
2023-04-03T07:26:09.028Z,16.30
2023-04-03T07:28:36.136Z,16.67
2023-04-03T07:31:09.952Z,16.48
2023-04-03T07:33:37.218Z,16.85
2023-04-03T07:36:05.260Z,16.50
2023-04-03T07:38:32.209Z,18.05
2023-04-03T07:40:59.314Z,15.93
2023-04-03T07:43:26.644Z,17.38
2023-04-03T07:45:55.435Z,16.00
2023-04-03T07:48:24.541Z,19.10
2023-04-03T07:50:52.238Z,19.63
2023-04-03T07:53:19.633Z,16.23
2023-04-03T07:55:50.370Z,17.90
2023-04-03T07:58:18.859Z,17.50
2023-04-03T08:00:46.755Z,17.95
2023-04-03T08:03:15.216Z,17.38
2023-04-03T08:05:43.495Z,17.63
2023-04-03T08:08:13.044Z,17.20
2023-04-03T08:10:40.666Z,18.10
2023-04-03T08:13:08.379Z,15.60
2023-04-03T08:15:35.645Z,16.67
2023-04-03T08:18:03.455Z,16.63
2023-04-03T08:20:30.678Z,14.63
2023-04-03T08:22:57.550Z,14.00
2023-04-03T08:25:27.304Z,12.75
2023-04-03T08:28:00.440Z,13.15
2023-04-03T08:30:27.627Z,13.20
2023-04-03T08:32:54.594Z,12.20
2023-04-03T08:35:21.673Z,14.02
2023-04-03T08:37:48.581Z,12.40
2023-04-03T08:40:17.979Z,11.00
2023-04-03T08:42:58.910Z,8.82
2023-04-03T08:45:46.459Z,8.70
2023-04-03T08:48:36.684Z,8.10
2023-04-03T08:51:21.270Z,7.43
2023-04-03T08:54:03.325Z,8.77
2023-04-03T08:56:32.484Z,7.80
2023-04-03T08:59:04.918Z,8.13
2023-04-03T09:01:39.521Z,8.27
2023-04-03T09:04:20.713Z,7.95
2023-04-03T09:06:54.004Z,8.32
2023-04-03T09:09:36.674Z,7.38
2023-04-03T09:12:43.037Z,8.98
2023-04-03T09:15:27.727Z,8.35
2023-04-03T09:18:01.905Z,8.70
2023-04-03T09:20:49.913Z,9.35
2023-04-03T09:23:27.869Z,9.80
2023-04-03T09:26:01.923Z,9.85
2023-04-03T09:28:35.764Z,9.27
2023-04-03T09:31:23.913Z,9.93
2023-04-03T09:33:55.054Z,11.65
2023-04-03T09:36:39.965Z,11.57
2023-04-03T09:39:12.086Z,10.30
2023-04-03T09:41:39.225Z,10.82
2023-04-03T09:44:22.079Z,11.05
2023-04-03T09:46:48.941Z,11.82
2023-04-03T09:49:16.129Z,11.77
2023-04-03T09:51:43.311Z,10.60
2023-04-03T09:54:32.742Z,10.70
2023-04-03T09:57:07.336Z,11.70
2023-04-03T09:59:34.700Z,12.20
2023-04-03T10:02:20.859Z,12.80
2023-04-03T10:04:53.088Z,12.70
2023-04-03T10:07:31.481Z,12.60
2023-04-03T10:10:17.061Z,13.45
2023-04-03T10:12:43.994Z,13.05
2023-04-03T10:15:22.088Z,13.77
2023-04-03T10:18:23.913Z,13.68
2023-04-03T10:20:55.298Z,14.52
2023-04-03T10:23:24.938Z,14.52
2023-04-03T10:26:13.983Z,14.75
2023-04-03T10:28:47.459Z,14.52
2023-04-03T10:31:36.253Z,14.40
2023-04-03T10:34:07.400Z,14.75
2023-04-03T10:36:42.577Z,15.80
2023-04-03T10:39:21.560Z,16.38
2023-04-03T10:42:13.350Z,15.50
2023-04-03T10:45:08.572Z,16.00
2023-04-03T10:48:04.818Z,15.07
2023-04-03T10:50:49.978Z,17.60
2023-04-03T10:53:39.109Z,18.35
2023-04-03T10:56:18.123Z,17.10
2023-04-03T10:58:49.588Z,16.85
2023-04-03T11:01:22.558Z,15.80
2023-04-03T11:03:56.943Z,16.48
2023-04-03T11:06:29.361Z,16.70
2023-04-03T11:09:04.866Z,16.38
2023-04-03T11:11:36.477Z,14.73
2023-04-03T11:14:30.498Z,15.98
2023-04-03T11:17:11.284Z,15.77
2023-04-03T11:19:47.303Z,16.02
2023-04-03T11:22:44.485Z,15.38
2023-04-03T11:25:14.431Z,15.23
2023-04-03T11:28:02.868Z,16.17
2023-04-03T11:30:42.937Z,16.05
2023-04-03T11:33:37.865Z,14.45
2023-04-03T11:36:18.848Z,15.27
2023-04-03T11:38:55.846Z,17.00
2023-04-03T11:41:33.518Z,14.93
2023-04-03T11:44:04.069Z,14.25
2023-04-03T11:46:54.886Z,15.45
2023-04-03T11:49:51.572Z,16.65
2023-04-03T11:52:57.262Z,14.95
2023-04-03T11:55:33.263Z,15.43
2023-04-03T11:58:00.220Z,14.63
2023-04-03T12:00:48.417Z,15.45
2023-04-03T12:03:31.094Z,15.07
2023-04-03T12:06:18.100Z,14.95
2023-04-03T12:08:49.001Z,15.07
2023-04-03T12:11:37.662Z,15.98
2023-04-03T12:14:06.357Z,15.05
2023-04-03T12:16:38.950Z,15.48
2023-04-03T12:19:32.215Z,15.13
2023-04-03T12:22:10.216Z,14.98
2023-04-03T12:24:43.541Z,26.95
2023-04-03T12:27:49.108Z,15.90
2023-04-03T12:30:23.794Z,15.73
2023-04-03T12:33:12.786Z,17.02
2023-04-03T12:35:46.724Z,17.05
2023-04-03T12:38:43.296Z,17.40
2023-04-03T12:41:19.168Z,15.88
2023-04-03T12:44:08.485Z,14.52
2023-04-03T12:46:45.852Z,15.77
2023-04-03T12:49:27.792Z,14.18
2023-04-03T12:51:54.996Z,14.35
2023-04-03T12:54:36.650Z,14.45
2023-04-03T12:57:25.874Z,13.95
2023-04-03T12:59:52.836Z,16.00
2023-04-03T13:02:27.507Z,16.23
2023-04-03T13:04:58.969Z,15.75
2023-04-03T13:07:39.792Z,16.45
2023-04-03T13:10:10.224Z,15.60
2023-04-03T13:12:47.419Z,15.07
2023-04-03T13:15:28.337Z,16.63
2023-04-03T13:17:56.313Z,15.95
2023-04-03T13:20:30.009Z,14.70
2023-04-03T13:23:10.123Z,14.85
2023-04-03T13:25:45.745Z,15.82
2023-04-03T13:28:16.574Z,14.93
2023-04-03T13:31:11.873Z,15.57
2023-04-03T13:33:39.274Z,13.57
2023-04-03T13:36:37.177Z,14.13
2023-04-03T13:39:12.133Z,13.82
2023-04-03T13:41:42.064Z,14.50
2023-04-03T13:44:18.096Z,14.38
2023-04-03T13:46:45.563Z,15.40
2023-04-03T13:49:45.602Z,15.50
2023-04-03T13:52:37.068Z,15.63
2023-04-03T13:55:25.871Z,15.50
2023-04-03T13:58:28.592Z,13.18
2023-04-03T14:01:19.630Z,12.93
2023-04-03T14:03:56.685Z,14.05
2023-04-03T14:06:24.817Z,13.95
2023-04-03T14:08:52.934Z,13.77
2023-04-03T14:11:30.772Z,12.68
2023-04-03T14:14:03.202Z,14.77
2023-04-03T14:16:33.932Z,16.60
2023-04-03T14:19:00.890Z,15.52
2023-04-03T14:21:27.782Z,14.60
2023-04-03T14:23:54.654Z,16.63
2023-04-03T14:26:24.521Z,15.82
2023-04-03T14:28:53.548Z,14.25
2023-04-03T14:31:21.933Z,14.77
2023-04-03T14:33:49.204Z,15.52
2023-04-03T14:36:19.101Z,18.92
2023-04-03T14:38:46.557Z,18.83
2023-04-03T14:41:16.881Z,18.88
2023-04-03T14:43:46.068Z,21.75
2023-04-03T14:49:20.098Z,21.35
2023-04-03T14:51:47.172Z,21.52
2023-04-03T14:54:20.662Z,21.48
2023-04-03T14:56:49.099Z,24.05
2023-04-03T14:59:16.769Z,25.05
2023-04-03T15:01:43.671Z,23.30
2023-04-03T15:04:15.698Z,24.38
2023-04-03T15:06:43.931Z,24.73
2023-04-03T15:09:26.843Z,24.13
2023-04-03T15:11:55.723Z,23.30
2023-04-03T15:14:35.490Z,23.17
2023-04-03T15:17:10.054Z,21.42
2023-04-03T15:19:40.635Z,22.52
2023-04-03T15:22:08.089Z,20.98
2023-04-03T15:24:35.086Z,21.08
2023-04-03T15:27:02.618Z,22.42
2023-04-03T15:29:29.573Z,20.98
2023-04-03T15:31:56.886Z,21.55
2023-04-03T15:34:23.812Z,23.77
2023-04-03T15:36:53.807Z,25.40
2023-04-03T15:39:22.051Z,23.75
2023-04-03T15:41:49.176Z,22.92
2023-04-03T15:44:18.797Z,22.42
2023-04-03T15:46:52.479Z,24.38
2023-04-03T15:49:21.443Z,23.67
2023-04-03T15:51:48.256Z,23.70
2023-04-03T15:54:15.813Z,22.27
2023-04-03T15:56:42.593Z,22.92
2023-04-03T15:59:09.518Z,22.95
2023-04-03T16:01:37.817Z,23.73
2023-04-03T16:04:05.598Z,24.73
2023-04-03T16:06:34.432Z,24.48
2023-04-03T16:09:02.105Z,23.23
2023-04-03T16:11:28.992Z,22.27
2023-04-03T16:13:56.400Z,23.42
2023-04-03T16:16:24.868Z,21.92
2023-04-03T16:18:51.946Z,20.67
2023-04-03T16:21:18.929Z,23.13
2023-04-03T16:23:46.242Z,21.48
2023-04-03T16:26:13.146Z,20.40
2023-04-03T16:28:40.092Z,21.40
2023-04-03T16:31:08.808Z,21.48
2023-04-03T16:33:36.169Z,21.17
2023-04-03T16:36:03.198Z,20.70
2023-04-03T16:38:30.275Z,19.00
2023-04-03T16:41:00.635Z,20.88
2023-04-03T16:43:28.075Z,19.80
2023-04-03T16:45:55.131Z,21.15
2023-04-03T16:48:22.157Z,19.27
2023-04-03T16:50:51.785Z,20.40
2023-04-03T16:53:18.726Z,20.15
2023-04-03T16:55:45.712Z,21.17
2023-04-03T16:58:12.657Z,19.23
2023-04-03T17:00:39.663Z,20.33
2023-04-03T17:03:06.713Z,21.98
2023-04-03T17:05:33.688Z,25.38
2023-04-03T17:08:01.918Z,24.60
2023-04-03T17:10:29.099Z,20.75
2023-04-03T17:12:55.957Z,19.23
2023-04-03T17:15:23.125Z,19.65
2023-04-03T17:17:51.017Z,18.27
2023-04-03T17:20:18.485Z,16.58
2023-04-03T17:22:45.710Z,18.13
2023-04-03T17:25:13.329Z,15.85
2023-04-03T17:27:40.853Z,12.43
2023-04-03T17:30:08.721Z,10.30
2023-04-03T17:32:35.688Z,9.05
2023-04-03T17:35:02.625Z,8.18
2023-04-03T17:37:29.584Z,8.20
2023-04-03T17:39:56.414Z,8.02
2023-04-03T17:42:23.362Z,6.78
2023-04-03T17:44:50.561Z,4.88
2023-04-03T17:47:17.415Z,5.32
2023-04-03T17:49:44.224Z,5.30
2023-04-03T17:52:11.192Z,4.90
2023-04-03T17:54:38.100Z,5.60
2023-04-03T17:57:05.796Z,4.55
2023-04-03T17:59:33.405Z,5.18
2023-04-03T18:02:00.469Z,5.82
2023-04-03T18:04:29.196Z,6.22
2023-04-03T18:06:56.318Z,5.05
2023-04-03T18:09:28.234Z,5.93
2023-04-03T18:11:57.134Z,4.90
2023-04-03T18:14:26.947Z,4.10
2023-04-03T18:16:57.130Z,4.43
2023-04-03T18:19:24.791Z,4.40
2023-04-03T18:21:55.502Z,4.28
2023-04-03T18:24:24.136Z,4.00
2023-04-03T18:26:56.006Z,3.92
2023-04-03T18:29:23.552Z,4.15
2023-04-03T18:31:54.544Z,4.43
2023-04-03T18:34:21.506Z,4.35
2023-04-03T18:36:49.235Z,4.65
2023-04-03T18:39:16.149Z,3.60
2023-04-03T18:41:43.592Z,3.95
2023-04-03T18:44:14.723Z,4.68
2023-04-03T18:46:41.939Z,5.38
2023-04-03T18:49:09.715Z,5.05
2023-04-03T18:51:39.327Z,4.18
2023-04-03T18:54:06.877Z,3.75
2023-04-03T18:56:33.794Z,3.63
2023-04-03T18:59:01.130Z,3.50
2023-04-03T19:01:28.398Z,4.32
2023-04-03T19:03:55.299Z,3.55
2023-04-03T19:06:22.301Z,3.45
2023-04-03T19:09:08.306Z,3.63
2023-04-03T19:11:35.684Z,4.40
2023-04-03T19:16:36.520Z,4.30
2023-04-03T19:19:03.994Z,4.20
2023-04-03T19:21:31.142Z,4.50
2023-04-03T19:23:59.474Z,4.57
2023-04-03T19:26:29.541Z,4.10
2023-04-03T19:28:56.737Z,4.07
2023-04-03T19:31:23.865Z,4.25
2023-04-03T19:33:51.730Z,4.32
2023-04-03T19:36:19.181Z,4.63
2023-04-03T19:38:46.439Z,4.30
2023-04-03T19:41:22.697Z,4.82
2023-04-03T19:43:51.797Z,4.95
2023-04-03T19:46:21.857Z,4.50
2023-04-03T19:48:49.014Z,4.43
2023-04-03T19:51:16.380Z,4.80
2023-04-03T19:53:43.348Z,4.70
2023-04-03T19:56:10.954Z,5.22
2023-04-03T19:58:39.362Z,5.60
2023-04-03T20:01:06.275Z,4.80
2023-04-03T20:03:34.431Z,5.40
2023-04-03T20:06:03.522Z,5.00
2023-04-03T20:08:31.893Z,4.63
2023-04-03T20:10:58.772Z,4.78
2023-04-03T20:13:25.700Z,4.40
2023-04-03T20:15:53.581Z,4.45
2023-04-03T20:18:21.496Z,6.78
2023-04-03T20:21:00.402Z,6.28
2023-04-03T20:23:28.220Z,5.93
2023-04-03T20:26:09.441Z,5.55
2023-04-03T20:28:38.534Z,6.03
2023-04-03T20:31:06.776Z,5.40
2023-04-03T20:33:34.442Z,6.45
2023-04-03T20:36:02.799Z,6.65
2023-04-03T20:38:29.864Z,5.50
2023-04-03T20:40:56.808Z,5.28
2023-04-03T20:43:23.843Z,4.80
2023-04-03T20:45:51.145Z,6.15
2023-04-03T20:48:18.508Z,5.60
2023-04-03T20:50:46.673Z,5.30
2023-04-03T20:53:15.105Z,5.47
2023-04-03T20:55:42.549Z,5.78
2023-04-03T20:58:09.773Z,5.50
2023-04-03T21:00:38.107Z,5.72
2023-04-03T21:03:06.388Z,5.28
2023-04-03T21:05:37.210Z,5.53
2023-04-03T21:08:41.209Z,4.65
2023-04-03T21:11:45.289Z,5.65
2023-04-03T21:14:49.611Z,5.72
2023-04-03T21:17:16.621Z,6.18
2023-04-03T21:19:46.242Z,5.80
2023-04-03T21:22:14.128Z,6.78
2023-04-03T21:24:41.277Z,5.80
2023-04-03T21:27:08.679Z,6.18
2023-04-03T21:29:35.538Z,5.38
2023-04-03T21:32:08.980Z,6.35
2023-04-03T21:34:35.954Z,6.15
2023-04-03T21:37:03.715Z,5.13
2023-04-03T21:39:30.997Z,4.57
2023-04-03T21:41:57.835Z,4.78
2023-04-03T21:44:25.347Z,5.22
2023-04-03T21:46:54.955Z,5.70
2023-04-03T21:49:22.593Z,6.15
2023-04-03T21:51:51.846Z,5.05
2023-04-03T21:54:19.460Z,5.05
2023-04-03T21:56:48.198Z,4.60
2023-04-03T21:59:15.933Z,5.97
2023-04-03T22:01:43.261Z,5.10
2023-04-03T22:04:10.883Z,5.95
2023-04-03T22:06:38.263Z,5.05
2023-04-03T22:09:05.696Z,4.82
2023-04-03T22:11:33.118Z,4.82
2023-04-03T22:14:00.256Z,4.65
2023-04-03T22:16:27.654Z,4.85
2023-04-03T22:18:55.089Z,5.53
2023-04-03T22:21:22.463Z,7.07
2023-04-03T22:23:49.589Z,5.00
2023-04-03T22:26:17.560Z,5.40
2023-04-03T22:28:47.190Z,4.90
2023-04-03T22:31:16.678Z,5.00
2023-04-03T22:33:45.776Z,5.60
2023-04-03T22:36:14.276Z,5.78
2023-04-03T22:38:45.816Z,4.35
2023-04-03T22:41:13.108Z,4.88
2023-04-03T22:43:40.448Z,4.50
2023-04-03T22:46:09.450Z,4.50
2023-04-03T22:48:42.439Z,4.93
2023-04-03T22:51:09.456Z,4.20
2023-04-03T22:53:36.950Z,3.70
2023-04-03T22:56:08.592Z,4.63
2023-04-03T22:58:35.527Z,3.85
2023-04-03T23:01:06.087Z,3.78
2023-04-03T23:03:34.125Z,3.50
2023-04-03T23:06:04.273Z,3.80
2023-04-03T23:08:32.697Z,3.67
2023-04-03T23:11:00.301Z,3.45
2023-04-03T23:13:28.760Z,3.40
2023-04-03T23:16:00.654Z,3.50
2023-04-03T23:18:31.562Z,3.30
2023-04-03T23:21:04.290Z,3.83
2023-04-03T23:23:32.152Z,3.22
2023-04-03T23:26:00.662Z,2.65
2023-04-03T23:28:28.640Z,3.35
2023-04-03T23:31:03.430Z,3.47
2023-04-03T23:33:31.917Z,3.40
2023-04-03T23:36:00.205Z,4.10
2023-04-03T23:38:27.334Z,3.00
2023-04-03T23:40:54.263Z,3.10
2023-04-03T23:43:21.272Z,2.85
2023-04-03T23:45:48.127Z,3.80
2023-04-03T23:48:15.281Z,2.67
2023-04-03T23:50:43.432Z,2.67
2023-04-03T23:53:10.580Z,2.60
2023-04-03T23:55:37.435Z,3.63
2023-04-03T23:58:04.445Z,1.92
